sensor_id;sensor_type;location;lat;lon;timestamp;P1;durP1;ratioP1;P2;durP2;ratioP2
37349;SDS011;23231;52.358;4.926;2023-03-31T00:02:55;24.30;;;3.72;;
37349;SDS011;23231;52.358;4.926;2023-03-31T00:07:58;22.30;;;4.00;;
37349;SDS011;23231;52.358;4.926;2023-03-31T00:13:00;26.65;;;4.20;;
37349;SDS011;23231;52.358;4.926;2023-03-31T00:18:01;19.92;;;4.10;;
37349;SDS011;23231;52.358;4.926;2023-03-31T00:23:02;23.23;;;4.22;;
37349;SDS011;23231;52.358;4.926;2023-03-31T00:28:09;22.48;;;4.32;;
37349;SDS011;23231;52.358;4.926;2023-03-31T00:33:10;21.15;;;3.40;;
37349;SDS011;23231;52.358;4.926;2023-03-31T00:38:10;18.95;;;3.45;;
37349;SDS011;23231;52.358;4.926;2023-03-31T00:43:35;23.60;;;3.80;;
37349;SDS011;23231;52.358;4.926;2023-03-31T00:48:35;15.82;;;3.63;;
37349;SDS011;23231;52.358;4.926;2023-03-31T00:53:36;21.27;;;4.05;;
37349;SDS011;23231;52.358;4.926;2023-03-31T00:58:37;17.90;;;3.35;;
37349;SDS011;23231;52.358;4.926;2023-03-31T01:03:42;12.60;;;3.22;;
37349;SDS011;23231;52.358;4.926;2023-03-31T01:08:45;21.92;;;3.90;;
37349;SDS011;23231;52.358;4.926;2023-03-31T01:13:47;14.80;;;3.70;;
37349;SDS011;23231;52.358;4.926;2023-03-31T01:18:51;20.63;;;3.67;;
37349;SDS011;23231;52.358;4.926;2023-03-31T01:50:34;13.73;;;4.00;;
37349;SDS011;23231;52.358;4.926;2023-03-31T02:00:44;12.77;;;3.55;;
37349;SDS011;23231;52.358;4.926;2023-03-31T02:05:56;15.45;;;3.75;;
37349;SDS011;23231;52.358;4.926;2023-03-31T02:10:58;11.50;;;3.63;;
37349;SDS011;23231;52.358;4.926;2023-03-31T02:16:01;11.95;;;3.50;;
37349;SDS011;23231;52.358;4.926;2023-03-31T02:21:05;13.32;;;4.63;;
37349;SDS011;23231;52.358;4.926;2023-03-31T02:26:11;17.08;;;4.30;;
37349;SDS011;23231;52.358;4.926;2023-03-31T02:36:47;17.52;;;5.50;;
37349;SDS011;23231;52.358;4.926;2023-03-31T02:41:48;13.48;;;5.45;;
37349;SDS011;23231;52.358;4.926;2023-03-31T02:46:49;19.95;;;5.28;;
37349;SDS011;23231;52.358;4.926;2023-03-31T02:51:55;14.02;;;5.38;;
37349;SDS011;23231;52.358;4.926;2023-03-31T03:13:16;15.60;;;5.75;;
37349;SDS011;23231;52.358;4.926;2023-03-31T03:18:22;15.77;;;5.28;;
37349;SDS011;23231;52.358;4.926;2023-03-31T03:23:22;16.88;;;5.13;;
37349;SDS011;23231;52.358;4.926;2023-03-31T03:28:23;13.73;;;4.30;;
37349;SDS011;23231;52.358;4.926;2023-03-31T03:33:23;19.40;;;4.00;;
37349;SDS011;23231;52.358;4.926;2023-03-31T03:38:24;13.73;;;5.00;;
37349;SDS011;23231;52.358;4.926;2023-03-31T03:43:24;19.70;;;4.53;;
37349;SDS011;23231;52.358;4.926;2023-03-31T03:48:24;13.43;;;4.30;;
37349;SDS011;23231;52.358;4.926;2023-03-31T03:53:25;13.25;;;4.68;;
37349;SDS011;23231;52.358;4.926;2023-03-31T03:58:26;17.33;;;5.38;;
37349;SDS011;23231;52.358;4.926;2023-03-31T04:03:26;14.35;;;5.03;;
37349;SDS011;23231;52.358;4.926;2023-03-31T04:08:26;19.63;;;5.13;;
37349;SDS011;23231;52.358;4.926;2023-03-31T04:13:27;12.02;;;3.92;;
37349;SDS011;23231;52.358;4.926;2023-03-31T04:18:27;13.85;;;4.72;;
37349;SDS011;23231;52.358;4.926;2023-03-31T04:23:35;11.63;;;4.00;;
37349;SDS011;23231;52.358;4.926;2023-03-31T04:28:42;14.10;;;3.42;;
37349;SDS011;23231;52.358;4.926;2023-03-31T04:33:45;17.60;;;4.93;;
37349;SDS011;23231;52.358;4.926;2023-03-31T04:38:47;15.35;;;4.65;;
37349;SDS011;23231;52.358;4.926;2023-03-31T04:43:53;12.95;;;4.60;;
37349;SDS011;23231;52.358;4.926;2023-03-31T04:48:54;12.60;;;4.88;;
37349;SDS011;23231;52.358;4.926;2023-03-31T04:53:54;17.65;;;5.72;;
37349;SDS011;23231;52.358;4.926;2023-03-31T04:58:55;17.60;;;5.40;;
37349;SDS011;23231;52.358;4.926;2023-03-31T05:03:55;17.63;;;6.38;;
37349;SDS011;23231;52.358;4.926;2023-03-31T05:08:55;13.65;;;5.03;;
37349;SDS011;23231;52.358;4.926;2023-03-31T05:13:56;16.40;;;4.93;;
37349;SDS011;23231;52.358;4.926;2023-03-31T05:18:56;11.43;;;4.63;;
37349;SDS011;23231;52.358;4.926;2023-03-31T05:23:57;13.55;;;4.75;;
37349;SDS011;23231;52.358;4.926;2023-03-31T05:28:57;15.52;;;5.70;;
37349;SDS011;23231;52.358;4.926;2023-03-31T05:33:57;12.77;;;5.30;;
37349;SDS011;23231;52.358;4.926;2023-03-31T05:38:58;14.27;;;5.03;;
37349;SDS011;23231;52.358;4.926;2023-03-31T05:43:58;14.80;;;4.47;;
37349;SDS011;23231;52.358;4.926;2023-03-31T05:48:59;16.48;;;5.00;;
37349;SDS011;23231;52.358;4.926;2023-03-31T05:53:59;14.57;;;5.50;;
37349;SDS011;23231;52.358;4.926;2023-03-31T05:59:00;19.67;;;4.15;;
37349;SDS011;23231;52.358;4.926;2023-03-31T06:04:00;12.45;;;3.60;;
37349;SDS011;23231;52.358;4.926;2023-03-31T06:09:01;12.60;;;4.43;;
37349;SDS011;23231;52.358;4.926;2023-03-31T06:14:01;10.93;;;3.95;;
37349;SDS011;23231;52.358;4.926;2023-03-31T06:19:02;9.35;;;3.53;;
37349;SDS011;23231;52.358;4.926;2023-03-31T06:24:02;11.88;;;3.80;;
37349;SDS011;23231;52.358;4.926;2023-03-31T06:29:02;15.93;;;3.60;;
37349;SDS011;23231;52.358;4.926;2023-03-31T06:34:03;12.93;;;3.30;;
37349;SDS011;23231;52.358;4.926;2023-03-31T06:39:03;14.43;;;3.88;;
37349;SDS011;23231;52.358;4.926;2023-03-31T06:44:04;12.60;;;3.72;;
37349;SDS011;23231;52.358;4.926;2023-03-31T06:49:04;12.35;;;3.78;;
37349;SDS011;23231;52.358;4.926;2023-03-31T06:54:05;11.90;;;4.15;;
37349;SDS011;23231;52.358;4.926;2023-03-31T06:59:05;14.63;;;4.32;;
37349;SDS011;23231;52.358;4.926;2023-03-31T07:04:06;8.98;;;3.55;;
37349;SDS011;23231;52.358;4.926;2023-03-31T07:09:06;10.23;;;3.47;;
37349;SDS011;23231;52.358;4.926;2023-03-31T07:14:06;11.43;;;3.67;;
37349;SDS011;23231;52.358;4.926;2023-03-31T07:19:07;13.55;;;3.47;;
37349;SDS011;23231;52.358;4.926;2023-03-31T07:24:09;12.13;;;3.60;;
37349;SDS011;23231;52.358;4.926;2023-03-31T07:29:10;8.30;;;3.13;;
37349;SDS011;23231;52.358;4.926;2023-03-31T07:34:10;7.32;;;3.25;;
37349;SDS011;23231;52.358;4.926;2023-03-31T07:39:11;8.35;;;3.00;;
37349;SDS011;23231;52.358;4.926;2023-03-31T07:44:11;11.07;;;3.20;;
37349;SDS011;23231;52.358;4.926;2023-03-31T07:49:12;11.65;;;3.60;;
37349;SDS011;23231;52.358;4.926;2023-03-31T07:54:15;11.25;;;3.50;;
37349;SDS011;23231;52.358;4.926;2023-03-31T07:59:15;10.32;;;5.07;;
37349;SDS011;23231;52.358;4.926;2023-03-31T08:04:15;12.65;;;4.75;;
37349;SDS011;23231;52.358;4.926;2023-03-31T08:09:16;13.88;;;4.10;;
37349;SDS011;23231;52.358;4.926;2023-03-31T08:14:17;11.50;;;4.28;;
37349;SDS011;23231;52.358;4.926;2023-03-31T08:19:17;11.32;;;4.00;;
37349;SDS011;23231;52.358;4.926;2023-03-31T08:24:18;14.05;;;4.93;;
37349;SDS011;23231;52.358;4.926;2023-03-31T08:29:19;16.63;;;4.90;;
37349;SDS011;23231;52.358;4.926;2023-03-31T08:34:19;13.63;;;4.35;;
37349;SDS011;23231;52.358;4.926;2023-03-31T08:39:20;16.15;;;5.35;;
37349;SDS011;23231;52.358;4.926;2023-03-31T08:44:40;18.40;;;5.13;;
37349;SDS011;23231;52.358;4.926;2023-03-31T08:49:48;16.27;;;5.38;;
37349;SDS011;23231;52.358;4.926;2023-03-31T08:54:53;11.52;;;5.18;;
37349;SDS011;23231;52.358;4.926;2023-03-31T08:59:55;18.40;;;5.43;;
37349;SDS011;23231;52.358;4.926;2023-03-31T09:10:37;18.08;;;5.85;;
37349;SDS011;23231;52.358;4.926;2023-03-31T09:15:53;18.77;;;5.15;;
37349;SDS011;23231;52.358;4.926;2023-03-31T09:26:45;17.27;;;4.72;;
37349;SDS011;23231;52.358;4.926;2023-03-31T09:31:48;14.25;;;4.85;;
37349;SDS011;23231;52.358;4.926;2023-03-31T09:36:49;14.32;;;4.45;;
37349;SDS011;23231;52.358;4.926;2023-03-31T09:41:50;16.27;;;5.38;;
37349;SDS011;23231;52.358;4.926;2023-03-31T09:46:51;19.35;;;4.70;;
37349;SDS011;23231;52.358;4.926;2023-03-31T09:51:57;17.20;;;4.97;;
37349;SDS011;23231;52.358;4.926;2023-03-31T09:57:01;15.30;;;4.63;;
37349;SDS011;23231;52.358;4.926;2023-03-31T10:02:03;14.57;;;3.97;;
37349;SDS011;23231;52.358;4.926;2023-03-31T10:07:12;12.90;;;3.35;;
37349;SDS011;23231;52.358;4.926;2023-03-31T10:12:21;16.20;;;4.25;;
37349;SDS011;23231;52.358;4.926;2023-03-31T10:17:26;17.85;;;3.55;;
37349;SDS011;23231;52.358;4.926;2023-03-31T10:22:28;12.75;;;3.53;;
37349;SDS011;23231;52.358;4.926;2023-03-31T10:27:30;15.95;;;3.58;;
37349;SDS011;23231;52.358;4.926;2023-03-31T10:32:31;16.40;;;3.60;;
37349;SDS011;23231;52.358;4.926;2023-03-31T10:37:33;14.48;;;4.00;;
37349;SDS011;23231;52.358;4.926;2023-03-31T10:42:35;14.25;;;4.10;;
37349;SDS011;23231;52.358;4.926;2023-03-31T10:47:35;16.42;;;3.53;;
37349;SDS011;23231;52.358;4.926;2023-03-31T10:52:45;14.57;;;3.17;;
37349;SDS011;23231;52.358;4.926;2023-03-31T10:58:05;15.70;;;3.53;;
37349;SDS011;23231;52.358;4.926;2023-03-31T11:03:26;13.30;;;3.22;;
37349;SDS011;23231;52.358;4.926;2023-03-31T11:14:31;11.70;;;3.30;;
37349;SDS011;23231;52.358;4.926;2023-03-31T11:19:40;11.52;;;3.35;;
37349;SDS011;23231;52.358;4.926;2023-03-31T11:30:27;9.88;;;2.70;;
37349;SDS011;23231;52.358;4.926;2023-03-31T11:35:53;11.82;;;2.65;;
37349;SDS011;23231;52.358;4.926;2023-03-31T11:41:09;14.95;;;3.17;;
37349;SDS011;23231;52.358;4.926;2023-03-31T11:46:24;10.38;;;3.55;;
37349;SDS011;23231;52.358;4.926;2023-03-31T11:56:42;10.65;;;2.90;;
37349;SDS011;23231;52.358;4.926;2023-03-31T12:06:46;12.52;;;3.10;;
37349;SDS011;23231;52.358;4.926;2023-03-31T12:11:54;11.77;;;3.33;;
37349;SDS011;23231;52.358;4.926;2023-03-31T12:16:59;11.15;;;2.28;;
37349;SDS011;23231;52.358;4.926;2023-03-31T12:22:15;10.88;;;2.78;;
37349;SDS011;23231;52.358;4.926;2023-03-31T12:32:39;8.38;;;2.00;;
37349;SDS011;23231;52.358;4.926;2023-03-31T12:37:52;7.18;;;1.88;;
37349;SDS011;23231;52.358;4.926;2023-03-31T12:54:08;10.35;;;2.60;;
37349;SDS011;23231;52.358;4.926;2023-03-31T13:04:40;8.32;;;2.50;;
37349;SDS011;23231;52.358;4.926;2023-03-31T13:09:42;10.88;;;3.03;;
37349;SDS011;23231;52.358;4.926;2023-03-31T13:14:44;13.10;;;3.63;;
37349;SDS011;23231;52.358;4.926;2023-03-31T13:19:46;9.57;;;3.65;;
37349;SDS011;23231;52.358;4.926;2023-03-31T13:24:47;13.05;;;3.72;;
37349;SDS011;23231;52.358;4.926;2023-03-31T13:29:47;14.55;;;3.10;;
37349;SDS011;23231;52.358;4.926;2023-03-31T13:45:45;12.02;;;2.90;;
37349;SDS011;23231;52.358;4.926;2023-03-31T14:12:19;12.93;;;3.45;;
37349;SDS011;23231;52.358;4.926;2023-03-31T14:17:22;8.88;;;2.80;;
37349;SDS011;23231;52.358;4.926;2023-03-31T14:22:39;8.73;;;2.55;;
37349;SDS011;23231;52.358;4.926;2023-03-31T14:38:44;5.72;;;2.17;;
37349;SDS011;23231;52.358;4.926;2023-03-31T14:43:48;8.02;;;2.60;;
37349;SDS011;23231;52.358;4.926;2023-03-31T14:48:50;7.57;;;1.80;;
37349;SDS011;23231;52.358;4.926;2023-03-31T14:53:54;5.97;;;2.17;;
37349;SDS011;23231;52.358;4.926;2023-03-31T14:58:58;6.65;;;2.38;;
37349;SDS011;23231;52.358;4.926;2023-03-31T15:03:59;8.50;;;2.53;;
37349;SDS011;23231;52.358;4.926;2023-03-31T15:09:02;6.57;;;2.05;;
37349;SDS011;23231;52.358;4.926;2023-03-31T15:14:03;6.10;;;2.15;;
37349;SDS011;23231;52.358;4.926;2023-03-31T15:19:06;10.80;;;2.88;;
37349;SDS011;23231;52.358;4.926;2023-03-31T15:24:12;6.40;;;2.47;;
37349;SDS011;23231;52.358;4.926;2023-03-31T15:39:24;6.93;;;2.47;;
37349;SDS011;23231;52.358;4.926;2023-03-31T15:49:27;10.02;;;3.60;;
37349;SDS011;23231;52.358;4.926;2023-03-31T15:54:30;10.70;;;3.60;;
37349;SDS011;23231;52.358;4.926;2023-03-31T15:59:43;8.95;;;3.40;;
37349;SDS011;23231;52.358;4.926;2023-03-31T16:04:48;9.40;;;3.40;;
37349;SDS011;23231;52.358;4.926;2023-03-31T16:09:51;10.48;;;4.38;;
37349;SDS011;23231;52.358;4.926;2023-03-31T16:14:57;13.27;;;5.32;;
37349;SDS011;23231;52.358;4.926;2023-03-31T16:20:05;10.55;;;5.35;;
37349;SDS011;23231;52.358;4.926;2023-03-31T16:25:19;8.95;;;4.45;;
37349;SDS011;23231;52.358;4.926;2023-03-31T16:30:31;10.40;;;5.00;;
37349;SDS011;23231;52.358;4.926;2023-03-31T16:35:37;10.65;;;5.50;;
37349;SDS011;23231;52.358;4.926;2023-03-31T16:40:43;12.70;;;6.35;;
37349;SDS011;23231;52.358;4.926;2023-03-31T16:45:46;11.43;;;5.65;;
37349;SDS011;23231;52.358;4.926;2023-03-31T16:50:55;9.48;;;5.43;;
37349;SDS011;23231;52.358;4.926;2023-03-31T16:55:56;11.82;;;5.72;;
37349;SDS011;23231;52.358;4.926;2023-03-31T17:00:57;9.90;;;6.13;;
37349;SDS011;23231;52.358;4.926;2023-03-31T17:05:57;12.60;;;5.90;;
37349;SDS011;23231;52.358;4.926;2023-03-31T17:11:03;9.90;;;5.30;;
37349;SDS011;23231;52.358;4.926;2023-03-31T17:16:06;12.43;;;7.00;;
37349;SDS011;23231;52.358;4.926;2023-03-31T17:21:08;10.10;;;5.82;;
37349;SDS011;23231;52.358;4.926;2023-03-31T17:26:09;9.85;;;5.70;;
37349;SDS011;23231;52.358;4.926;2023-03-31T17:31:16;10.18;;;6.00;;
37349;SDS011;23231;52.358;4.926;2023-03-31T17:36:18;12.35;;;6.32;;
37349;SDS011;23231;52.358;4.926;2023-03-31T17:41:18;9.38;;;5.80;;
37349;SDS011;23231;52.358;4.926;2023-03-31T17:46:20;9.38;;;6.07;;
37349;SDS011;23231;52.358;4.926;2023-03-31T17:51:20;13.43;;;5.50;;
37349;SDS011;23231;52.358;4.926;2023-03-31T17:56:22;14.23;;;7.47;;
37349;SDS011;23231;52.358;4.926;2023-03-31T18:01:22;14.95;;;7.53;;
37349;SDS011;23231;52.358;4.926;2023-03-31T18:06:23;10.48;;;5.93;;
37349;SDS011;23231;52.358;4.926;2023-03-31T18:11:24;16.27;;;7.53;;
37349;SDS011;23231;52.358;4.926;2023-03-31T18:16:24;12.25;;;7.68;;
37349;SDS011;23231;52.358;4.926;2023-03-31T18:21:25;15.40;;;8.00;;
37349;SDS011;23231;52.358;4.926;2023-03-31T18:26:26;12.60;;;6.32;;
37349;SDS011;23231;52.358;4.926;2023-03-31T18:31:26;15.93;;;8.90;;
37349;SDS011;23231;52.358;4.926;2023-03-31T18:36:27;19.08;;;8.63;;
37349;SDS011;23231;52.358;4.926;2023-03-31T18:41:28;18.02;;;6.93;;
37349;SDS011;23231;52.358;4.926;2023-03-31T18:46:29;14.00;;;6.68;;
37349;SDS011;23231;52.358;4.926;2023-03-31T18:51:29;16.25;;;6.25;;
37349;SDS011;23231;52.358;4.926;2023-03-31T18:56:30;12.00;;;5.90;;
37349;SDS011;23231;52.358;4.926;2023-03-31T19:01:30;14.35;;;6.18;;
37349;SDS011;23231;52.358;4.926;2023-03-31T19:06:38;13.45;;;6.35;;
37349;SDS011;23231;52.358;4.926;2023-03-31T19:11:39;14.20;;;5.78;;
37349;SDS011;23231;52.358;4.926;2023-03-31T19:16:40;16.33;;;6.03;;
37349;SDS011;23231;52.358;4.926;2023-03-31T19:21:42;16.65;;;5.97;;
37349;SDS011;23231;52.358;4.926;2023-03-31T19:26:43;15.93;;;7.40;;
37349;SDS011;23231;52.358;4.926;2023-03-31T19:31:44;16.30;;;6.25;;
37349;SDS011;23231;52.358;4.926;2023-03-31T19:36:46;16.83;;;6.63;;
37349;SDS011;23231;52.358;4.926;2023-03-31T19:41:46;19.08;;;5.95;;
37349;SDS011;23231;52.358;4.926;2023-03-31T19:46:47;12.68;;;5.97;;
37349;SDS011;23231;52.358;4.926;2023-03-31T19:51:47;17.10;;;5.80;;
37349;SDS011;23231;52.358;4.926;2023-03-31T19:56:48;15.32;;;6.03;;
37349;SDS011;23231;52.358;4.926;2023-03-31T20:01:48;15.10;;;5.85;;
37349;SDS011;23231;52.358;4.926;2023-03-31T20:06:49;16.67;;;5.43;;
37349;SDS011;23231;52.358;4.926;2023-03-31T20:11:50;12.82;;;5.40;;
37349;SDS011;23231;52.358;4.926;2023-03-31T20:16:52;15.35;;;5.75;;
37349;SDS011;23231;52.358;4.926;2023-03-31T20:21:53;14.52;;;6.25;;
37349;SDS011;23231;52.358;4.926;2023-03-31T20:26:54;11.57;;;5.68;;
37349;SDS011;23231;52.358;4.926;2023-03-31T20:31:55;16.65;;;6.55;;
37349;SDS011;23231;52.358;4.926;2023-03-31T20:36:56;14.75;;;6.78;;
37349;SDS011;23231;52.358;4.926;2023-03-31T20:41:57;14.18;;;6.47;;
37349;SDS011;23231;52.358;4.926;2023-03-31T20:46:57;16.58;;;7.95;;
37349;SDS011;23231;52.358;4.926;2023-03-31T20:51:59;13.77;;;7.32;;
37349;SDS011;23231;52.358;4.926;2023-03-31T20:56:59;20.77;;;8.20;;
37349;SDS011;23231;52.358;4.926;2023-03-31T21:02:00;17.95;;;8.18;;
37349;SDS011;23231;52.358;4.926;2023-03-31T21:07:02;21.10;;;8.85;;
37349;SDS011;23231;52.358;4.926;2023-03-31T21:12:02;19.08;;;10.00;;
37349;SDS011;23231;52.358;4.926;2023-03-31T21:17:03;19.90;;;10.05;;
37349;SDS011;23231;52.358;4.926;2023-03-31T21:22:04;19.45;;;9.43;;
37349;SDS011;23231;52.358;4.926;2023-03-31T21:27:04;22.00;;;10.90;;
37349;SDS011;23231;52.358;4.926;2023-03-31T21:32:05;24.70;;;11.15;;
37349;SDS011;23231;52.358;4.926;2023-03-31T21:37:05;28.77;;;11.30;;
37349;SDS011;23231;52.358;4.926;2023-03-31T21:42:07;34.05;;;11.98;;
37349;SDS011;23231;52.358;4.926;2023-03-31T21:47:08;25.35;;;9.93;;
37349;SDS011;23231;52.358;4.926;2023-03-31T21:52:08;27.17;;;10.38;;
37349;SDS011;23231;52.358;4.926;2023-03-31T21:57:09;26.63;;;9.40;;
37349;SDS011;23231;52.358;4.926;2023-03-31T22:02:09;25.88;;;9.65;;
37349;SDS011;23231;52.358;4.926;2023-03-31T22:07:10;26.35;;;9.85;;
37349;SDS011;23231;52.358;4.926;2023-03-31T22:12:12;32.75;;;9.18;;
37349;SDS011;23231;52.358;4.926;2023-03-31T22:17:13;34.60;;;11.02;;
37349;SDS011;23231;52.358;4.926;2023-03-31T22:22:13;28.98;;;10.32;;
37349;SDS011;23231;52.358;4.926;2023-03-31T22:27:14;31.83;;;10.88;;
37349;SDS011;23231;52.358;4.926;2023-03-31T22:32:14;24.80;;;8.10;;
37349;SDS011;23231;52.358;4.926;2023-03-31T22:37:18;31.55;;;9.82;;
37349;SDS011;23231;52.358;4.926;2023-03-31T22:42:19;30.55;;;9.85;;
37349;SDS011;23231;52.358;4.926;2023-03-31T22:47:20;28.65;;;9.48;;
37349;SDS011;23231;52.358;4.926;2023-03-31T22:52:20;34.03;;;11.10;;
37349;SDS011;23231;52.358;4.926;2023-03-31T22:57:21;33.85;;;10.40;;
37349;SDS011;23231;52.358;4.926;2023-03-31T23:02:21;27.75;;;8.57;;
37349;SDS011;23231;52.358;4.926;2023-03-31T23:07:21;32.65;;;10.40;;
37349;SDS011;23231;52.358;4.926;2023-03-31T23:12:26;32.22;;;10.45;;
37349;SDS011;23231;52.358;4.926;2023-03-31T23:17:26;29.88;;;12.23;;
37349;SDS011;23231;52.358;4.926;2023-03-31T23:22:27;32.20;;;12.82;;
37349;SDS011;23231;52.358;4.926;2023-03-31T23:27:28;38.38;;;13.32;;
37349;SDS011;23231;52.358;4.926;2023-03-31T23:32:29;42.25;;;14.20;;
37349;SDS011;23231;52.358;4.926;2023-03-31T23:37:29;31.08;;;12.32;;
37349;SDS011;23231;52.358;4.926;2023-03-31T23:42:30;39.25;;;12.75;;
37349;SDS011;23231;52.358;4.926;2023-03-31T23:47:30;33.58;;;11.02;;
37349;SDS011;23231;52.358;4.926;2023-03-31T23:52:31;38.17;;;13.45;;
37349;SDS011;23231;52.358;4.926;2023-03-31T23:57:34;41.75;;;11.80;;
